Time;durP1;ratioP1;P1;durP2;ratioP2;P2;SDS_P1;SDS_P2;PMS_P1;PMS_P2;Temp;Humidity;BMP_temperature;BMP_pressure;BME280_temperature;BME280_humidity;BME280_pressure;Samples;Min_cycle;Max_cycle;Signal;HPM_P1;HPM_P2
2022/05/07 00:02:18;;;;;;;7.60;6.50;;;;;;;9.80;78.19;96141.58;1789904;80;21054;-67
2022/05/07 00:04:45;;;;;;;7.47;6.00;;;;;;;9.72;78.64;96141.19;1790043;80;21007;-67
2022/05/07 00:07:12;;;;;;;11.90;6.90;;;;;;;9.64;79.20;96138.19;1789968;80;20991;-67
2022/05/07 00:09:39;;;;;;;13.70;8.47;;;;;;;9.70;79.40;96144.30;1789984;80;21030;-67
2022/05/07 00:12:07;;;;;;;20.77;11.70;;;;;;;9.77;79.30;96133.70;1789465;80;21567;-67
2022/05/07 00:14:35;;;;;;;18.83;10.77;;;;;;;9.80;78.95;96138.95;1759758;80;20975;-67
2022/05/07 00:19:48;;;;;;;9.00;7.83;;;;;;;9.83;78.44;96138.50;1789515;80;21022;-67
2022/05/07 00:22:15;;;;;;;10.03;7.43;;;;;;;9.85;78.11;96139.38;1789783;80;20999;-68
2022/05/07 00:24:42;;;;;;;8.60;6.83;;;;;;;9.87;77.96;96139.34;1790241;80;21010;-68
2022/05/07 00:27:09;;;;;;;8.03;6.83;;;;;;;9.83;77.48;96139.82;1789444;80;21003;-68
2022/05/07 00:29:36;;;;;;;9.37;6.20;;;;;;;9.78;77.46;96141.61;1789551;80;21571;-68
2022/05/07 00:32:05;;;;;;;7.67;6.87;;;;;;;9.70;76.96;96137.71;1790079;80;21006;-68
2022/05/07 00:34:31;;;;;;;7.53;6.23;;;;;;;9.54;76.93;96130.77;1789809;80;21525;-68
2022/05/07 00:36:58;;;;;;;10.23;6.93;;;;;;;9.43;77.17;96129.53;1789927;80;21006;-67
2022/05/07 00:39:25;;;;;;;6.77;5.97;;;;;;;9.28;78.77;96126.98;1789965;80;20984;-68
2022/05/07 00:41:54;;;;;;;9.37;6.40;;;;;;;9.16;78.24;96129.22;1789431;80;21121;-67
2022/05/07 00:44:22;;;;;;;9.13;6.93;;;;;;;9.09;80.11;96127.04;1789932;80;21046;-68
2022/05/07 00:46:50;;;;;;;12.03;8.53;;;;;;;9.10;80.14;96128.81;1789888;80;20955;-67
2022/05/07 00:49:18;;;;;;;9.87;7.47;;;;;;;9.10;80.26;96124.86;1789816;80;21001;-67
2022/05/07 00:51:46;;;;;;;9.57;7.07;;;;;;;9.14;80.05;96124.84;1780910;80;21094;-68
2022/05/07 00:54:13;;;;;;;8.00;6.03;;;;;;;9.19;79.69;96125.70;1781149;80;21098;-66
2022/05/07 00:56:40;;;;;;;11.73;7.60;;;;;;;9.23;79.39;96126.12;1780371;80;21006;-68
2022/05/07 00:59:08;;;;;;;7.53;5.90;;;;;;;9.21;79.57;96122.62;1780844;80;20992;-68
2022/05/07 01:01:35;;;;;;;7.77;6.20;;;;;;;9.20;79.53;96125.70;1780677;80;21059;-68
2022/05/07 01:04:03;;;;;;;9.30;6.00;;;;;;;9.15;79.12;96123.53;1780751;80;21019;-68
2022/05/07 01:06:31;;;;;;;8.67;5.80;;;;;;;9.05;79.25;96120.50;1780881;80;21529;-68
2022/05/07 01:08:58;;;;;;;8.50;6.23;;;;;;;9.07;79.69;96122.66;1780778;80;21053;-68
2022/05/07 01:11:27;;;;;;;9.83;6.10;;;;;;;9.01;79.69;96120.94;1780308;80;21054;-68
2022/05/07 01:13:55;;;;;;;9.33;5.67;;;;;;;8.99;79.72;96120.06;1780941;80;20999;-68
2022/05/07 01:16:24;;;;;;;7.60;6.10;;;;;;;9.03;79.62;96121.81;1780777;80;21002;-68
2022/05/07 01:18:51;;;;;;;8.33;6.10;;;;;;;9.06;79.61;96119.16;1780720;80;21070;-68
2022/05/07 01:21:18;;;;;;;6.40;5.30;;;;;;;9.08;80.13;96114.77;1780574;80;21130;-68
2022/05/07 01:23:50;;;;;;;8.80;5.80;;;;;;;9.05;79.92;96116.11;1780890;80;20999;-68
2022/05/07 01:26:20;;;;;;;15.63;9.07;;;;;;;9.07;80.53;96116.08;1780717;80;21010;-68
2022/05/07 01:28:45;;;;;;;13.27;8.97;;;;;;;9.13;80.54;96118.70;1780529;80;21003;-68
2022/05/07 01:31:12;;;;;;;21.53;12.07;;;;;;;9.18;80.41;96107.71;1780719;80;21055;-68
2022/05/07 01:33:39;;;;;;;13.70;9.67;;;;;;;9.18;80.12;96114.30;1780432;81;21051;-68
2022/05/07 01:36:11;;;;;;;21.00;13.20;;;;;;;9.17;80.00;96111.66;1748935;81;21090;-68
2022/05/07 01:38:38;;;;;;;11.67;6.10;;;;;;;9.17;79.94;96119.14;1780697;80;21039;-68
2022/05/07 01:41:04;;;;;;;7.03;5.60;;;;;;;9.13;79.48;96113.44;1780647;80;21529;-68
2022/05/07 01:43:34;;;;;;;8.57;5.10;;;;;;;9.01;79.44;96108.23;1780517;80;21118;-68
2022/05/07 01:46:01;;;;;;;6.13;5.40;;;;;;;8.97;79.73;96116.59;1780895;80;21018;-68
2022/05/07 01:48:29;;;;;;;13.97;9.73;;;;;;;8.89;79.65;96113.09;1780821;80;21013;-68
2022/05/07 01:50:56;;;;;;;9.40;6.03;;;;;;;8.83;79.60;96117.94;1785095;80;21007;-68
2022/05/07 01:53:28;;;;;;;6.53;5.50;;;;;;;8.78;79.65;96116.21;1788866;80;21058;-68
2022/05/07 01:55:55;;;;;;;8.37;5.53;;;;;;;8.64;79.59;96112.29;1789304;79;21010;-67
2022/05/07 01:58:24;;;;;;;9.33;5.80;;;;;;;8.58;79.78;96112.32;1788986;80;21074;-68
2022/05/07 02:00:52;;;;;;;7.57;6.33;;;;;;;8.61;80.15;96115.80;1789542;79;21477;-68
2022/05/07 02:03:19;;;;;;;8.47;5.60;;;;;;;8.62;80.23;96113.63;1789500;80;21047;-68
2022/05/07 02:05:46;;;;;;;11.10;6.40;;;;;;;8.49;80.17;96105.76;1789075;79;21506;-68
2022/05/07 02:08:14;;;;;;;8.07;5.37;;;;;;;8.44;80.48;96106.66;1789456;79;20975;-67
2022/05/07 02:10:41;;;;;;;7.93;5.97;;;;;;;8.44;80.46;96108.39;1789200;80;21006;-68
2022/05/07 02:13:08;;;;;;;9.13;6.57;;;;;;;8.44;80.63;96103.13;1788581;79;21084;-68
2022/05/07 02:15:36;;;;;;;7.83;6.70;;;;;;;8.43;80.62;96100.95;1789337;80;21512;-68
2022/05/07 02:18:03;;;;;;;18.10;10.67;;;;;;;8.40;81.51;96102.72;1789007;80;21019;-69
2022/05/07 02:20:30;;;;;;;18.03;12.80;;;;;;;8.34;81.68;96099.64;1789154;79;20983;-68
2022/05/07 02:22:59;;;;;;;16.30;10.60;;;;;;;8.33;81.65;96098.31;1789258;80;21046;-68
2022/05/07 02:25:27;;;;;;;16.60;9.90;;;;;;;8.30;81.72;96099.64;1789331;80;20955;-67
2022/05/07 02:27:56;;;;;;;13.97;8.60;;;;;;;8.32;81.87;96092.63;1788938;79;21002;-68
2022/05/07 02:30:23;;;;;;;9.40;6.73;;;;;;;8.31;82.21;96100.06;1789573;79;20979;-68
2022/05/07 02:32:50;;;;;;;7.17;5.97;;;;;;;8.30;81.51;96097.02;1789400;79;21045;-67
2022/05/07 02:35:18;;;;;;;6.67;5.40;;;;;;;8.34;81.57;96101.37;1789263;80;21469;-67
2022/05/07 02:37:45;;;;;;;5.50;4.60;;;;;;;8.36;81.24;96094.36;1788945;80;21057;-67
2022/05/07 02:40:13;;;;;;;8.73;6.97;;;;;;;8.34;80.91;96093.48;1789099;80;21481;-67
2022/05/07 02:42:40;;;;;;;6.03;5.10;;;;;;;8.30;81.64;96094.38;1789189;79;21098;-68
2022/05/07 02:45:11;;;;;;;9.73;5.63;;;;;;;8.35;81.38;96093.48;1788578;80;20971;-67
2022/05/07 02:47:42;;;;;;;7.07;4.97;;;;;;;8.31;81.15;96093.05;1789055;79;21549;-67
2022/05/07 02:50:11;;;;;;;5.63;5.03;;;;;;;8.32;81.81;96103.15;1788965;79;21487;-67
2022/05/07 02:52:38;;;;;;;9.67;4.73;;;;;;;8.37;81.45;96100.08;1776623;80;21046;-68
2022/05/07 02:55:09;;;;;;;6.43;4.53;;;;;;;8.35;81.58;96097.87;1780889;80;21014;-68
2022/05/07 02:57:36;;;;;;;5.57;4.50;;;;;;;8.39;81.53;96102.23;1780734;80;21011;-68
2022/05/07 03:00:06;;;;;;;8.37;5.00;;;;;;;8.45;81.78;96100.95;1780894;80;21544;-68
2022/05/07 03:02:35;;;;;;;6.80;4.87;;;;;;;8.53;81.68;96101.80;1780725;80;21070;-68
2022/05/07 03:05:02;;;;;;;5.90;4.57;;;;;;;8.64;81.88;96101.36;1780834;80;21551;-68
2022/05/07 03:07:28;;;;;;;5.13;4.60;;;;;;;8.75;81.65;96099.13;1780913;80;21019;-68
2022/05/07 03:09:56;;;;;;;6.13;4.80;;;;;;;8.83;81.43;96099.97;1780826;80;21039;-68
2022/05/07 03:12:23;;;;;;;4.70;3.93;;;;;;;8.90;81.40;96095.57;1781024;80;20975;-68
2022/05/07 03:14:50;;;;;;;5.23;4.73;;;;;;;8.91;80.86;96096.86;1780486;80;20980;-67
2022/05/07 03:17:17;;;;;;;6.33;4.60;;;;;;;8.76;80.46;96107.00;1780863;80;21517;-67
2022/05/07 03:19:44;;;;;;;7.10;5.87;;;;;;;8.77;80.90;96092.08;1780525;81;20996;-68
2022/05/07 03:22:10;;;;;;;6.57;5.07;;;;;;;8.82;81.52;96099.52;1780942;80;21003;-68
2022/05/07 03:24:38;;;;;;;6.37;4.70;;;;;;;8.91;81.31;96103.88;1780675;80;20968;-68
2022/05/07 03:27:06;;;;;;;7.23;5.73;;;;;;;8.88;81.09;96099.51;1780734;80;20956;-68
2022/05/07 03:29:34;;;;;;;6.83;5.60;;;;;;;8.93;81.09;96104.31;1780689;80;21038;-68
2022/05/07 03:32:03;;;;;;;7.27;5.00;;;;;;;8.97;80.54;96102.53;1779171;80;21045;-68
2022/05/07 03:34:29;;;;;;;6.70;4.97;;;;;;;8.87;80.77;96101.72;1780883;80;21003;-68
2022/05/07 03:36:56;;;;;;;7.03;4.20;;;;;;;8.92;81.25;96099.04;1780691;80;21035;-68
2022/05/07 03:39:26;;;;;;;5.73;4.70;;;;;;;8.99;80.62;96102.09;1780983;80;21038;-68
2022/05/07 03:41:51;;;;;;;6.70;4.70;;;;;;;8.90;80.37;96105.65;1780925;80;21022;-69
2022/05/07 03:44:18;;;;;;;6.73;5.07;;;;;;;8.95;80.57;96105.64;1780809;80;21035;-69
2022/05/07 03:46:45;;;;;;;6.97;5.57;;;;;;;8.97;80.46;96110.02;1780525;81;21004;-69
2022/05/07 03:49:12;;;;;;;8.13;5.73;;;;;;;8.90;80.54;96108.28;1780833;80;21011;-69
2022/05/07 03:54:25;;;;;;;6.63;4.80;;;;;;;8.79;80.04;96117.50;1789187;79;21079;-69
2022/05/07 03:56:52;;;;;;;7.10;4.60;;;;;;;8.73;80.13;96114.91;1789121;79;21417;-68
2022/05/07 03:59:20;;;;;;;5.57;4.60;;;;;;;8.68;80.78;96122.38;1789479;79;20975;-69
2022/05/07 04:01:49;;;;;;;5.70;4.57;;;;;;;8.62;80.91;96124.16;1789487;80;21022;-69
2022/05/07 04:04:17;;;;;;;5.10;4.60;;;;;;;8.65;81.40;96124.14;1788800;80;20982;-69
2022/05/07 04:06:44;;;;;;;5.97;4.73;;;;;;;8.63;80.95;96123.70;1789416;80;21007;-69
2022/05/07 04:09:11;;;;;;;6.23;4.80;;;;;;;8.69;80.82;96121.48;1789449;79;21041;-69
2022/05/07 04:11:38;;;;;;;6.83;4.60;;;;;;;8.63;82.52;96119.76;1789301;79;21022;-69
2022/05/07 04:14:05;;;;;;;5.67;4.93;;;;;;;8.64;81.50;96118.45;1789220;79;21011;-69
2022/05/07 04:16:31;;;;;;;9.97;4.97;;;;;;;8.65;82.63;96122.82;1789472;79;21010;-69
2022/05/07 04:19:00;;;;;;;8.23;5.37;;;;;;;8.74;81.79;96123.66;1787205;80;21015;-70
2022/05/07 04:21:27;;;;;;;6.33;5.17;;;;;;;8.82;81.77;96124.52;1789294;80;21549;-69
2022/05/07 04:23:56;;;;;;;6.27;5.10;;;;;;;8.94;81.93;96123.60;1788282;80;21106;-69
2022/05/07 04:26:23;;;;;;;14.00;8.93;;;;;;;9.05;82.36;96124.45;1789232;79;21114;-69
2022/05/07 04:28:50;;;;;;;18.60;11.90;;;;;;;9.10;82.39;96131.44;1789005;80;21121;-69
2022/05/07 04:31:18;;;;;;;17.40;11.53;;;;;;;9.19;82.04;96133.14;1789530;79;21460;-69
2022/05/07 04:33:47;;;;;;;14.70;10.50;;;;;;;9.26;81.77;96130.05;1788149;80;21022;-69
2022/05/07 04:36:14;;;;;;;8.67;5.43;;;;;;;9.39;81.50;96137.45;1789539;79;21022;-68
2022/05/07 04:38:43;;;;;;;14.33;9.70;;;;;;;9.44;81.59;96137.84;1789261;80;21014;-68
2022/05/07 04:41:11;;;;;;;14.10;10.20;;;;;;;9.56;81.57;96137.36;1789092;80;21065;-69
2022/05/07 04:43:38;;;;;;;14.07;9.80;;;;;;;9.68;81.48;96137.30;1789238;79;21469;-68
2022/05/07 04:46:05;;;;;;;13.77;9.33;;;;;;;9.81;80.76;96134.13;1789405;79;20978;-68
2022/05/07 04:48:33;;;;;;;15.37;11.60;;;;;;;9.87;79.70;96138.89;1789382;80;21503;-69
2022/05/07 04:51:01;;;;;;;7.00;5.10;;;;;;;9.90;79.77;96136.27;1789284;80;21030;-68
2022/05/07 04:53:33;;;;;;;4.90;4.00;;;;;;;9.91;79.59;96140.63;1789468;80;21026;-69
2022/05/07 04:56:01;;;;;;;8.17;4.30;;;;;;;9.92;79.91;96134.46;1788711;80;21046;-69
2022/05/07 04:58:28;;;;;;;12.43;10.07;;;;;;;10.01;80.63;96142.77;1789155;80;21516;-67
2022/05/07 05:00:57;;;;;;;15.60;11.73;;;;;;;10.14;80.58;96142.22;1789227;80;20979;-67
2022/05/07 05:03:25;;;;;;;19.53;13.50;;;;;;;10.27;80.39;96141.67;1789224;79;21493;-67
2022/05/07 05:05:53;;;;;;;20.03;15.27;;;;;;;10.35;79.46;96143.38;1788348;80;21526;-67
2022/05/07 05:08:22;;;;;;;20.80;15.13;;;;;;;10.42;79.48;96141.56;1786315;80;21062;-66
2022/05/07 05:10:49;;;;;;;21.67;15.30;;;;;;;10.45;78.81;96141.53;1789388;79;21481;-66
2022/05/07 05:13:16;;;;;;;19.97;17.03;;;;;;;10.38;79.13;96141.16;1789215;79;21079;-66
2022/05/07 05:15:45;;;;;;;19.60;15.87;;;;;;;10.37;79.87;96144.69;1789336;80;21515;-66
2022/05/07 05:18:25;;;;;;;22.33;15.93;;;;;;;10.37;79.94;96145.56;1788043;80;21074;-68
2022/05/07 05:20:53;;;;;;;27.82;19.25;;;;;;;10.44;80.32;96148.16;1789216;80;21038;-68
2022/05/07 05:23:22;;;;;;;31.70;20.55;;;;;;;10.58;80.17;96149.78;1787779;80;21046;-68
2022/05/07 05:25:50;;;;;;;27.37;17.67;;;;;;;10.72;79.84;96148.77;1789304;79;20971;-68
2022/05/07 05:28:21;;;;;;;36.87;23.27;;;;;;;10.83;78.17;96150.83;1788582;80;21078;-68
2022/05/07 05:30:52;;;;;;;28.27;17.87;;;;;;;10.92;77.25;96154.70;1789475;80;20982;-69
2022/05/07 05:33:20;;;;;;;23.15;16.65;;;;;;;11.03;76.68;96143.55;1789566;80;20999;-69
2022/05/07 05:35:49;;;;;;;19.82;14.45;;;;;;;11.19;75.74;96148.69;1786894;80;21002;-69
2022/05/07 05:38:15;;;;;;;13.90;10.98;;;;;;;11.34;75.48;96147.59;1789352;79;21014;-69
2022/05/07 05:40:43;;;;;;;17.12;11.55;;;;;;;11.55;75.65;96142.49;1789294;79;21496;-69
2022/05/07 05:43:10;;;;;;;14.38;11.28;;;;;;;11.78;76.23;96148.33;1789171;79;20995;-69
2022/05/07 05:45:37;;;;;;;14.55;9.85;;;;;;;12.03;75.88;96146.22;1789397;80;20947;-69
2022/05/07 05:48:05;;;;;;;10.20;8.73;;;;;;;12.28;75.91;96151.13;1789251;79;21022;-69
2022/05/07 05:50:33;;;;;;;12.43;9.00;;;;;;;12.51;75.10;96146.77;1789166;79;21046;-68
2022/05/07 05:53:00;;;;;;;12.05;9.65;;;;;;;12.75;75.33;96146.34;1782397;79;21465;-68
2022/05/07 05:55:27;;;;;;;11.15;9.45;;;;;;;12.91;74.17;96147.38;1780918;80;20944;-68
2022/05/07 05:57:55;;;;;;;13.10;9.20;;;;;;;13.08;73.78;96143.06;1780758;80;20995;-68
2022/05/07 06:00:22;;;;;;;14.43;11.97;;;;;;;13.32;73.82;96145.26;1776556;80;21544;-68
2022/05/07 06:02:49;;;;;;;13.30;9.58;;;;;;;13.55;73.14;96143.45;1780421;80;21071;-69
2022/05/07 06:05:19;;;;;;;8.63;7.40;;;;;;;13.82;72.71;96138.00;1780030;80;20999;-69
2022/05/07 06:07:48;;;;;;;11.03;8.75;;;;;;;14.04;69.31;96141.03;1780394;81;21508;-69
2022/05/07 06:10:15;;;;;;;11.35;8.55;;;;;;;14.35;70.82;96134.98;1780693;80;20955;-69
2022/05/07 06:12:42;;;;;;;9.00;8.10;;;;;;;14.64;70.15;96131.64;1780651;80;21011;-69
2022/05/07 06:15:11;;;;;;;9.73;7.65;;;;;;;14.82;69.50;96133.40;1780814;80;20999;-69
2022/05/07 06:17:38;;;;;;;10.05;7.97;;;;;;;14.80;65.84;96128.58;1780435;80;21015;-69
2022/05/07 06:20:07;;;;;;;29.60;14.70;;;;;;;14.88;68.22;96130.56;1780709;81;21488;-69
2022/05/07 06:22:36;;;;;;;9.45;5.97;;;;;;;14.96;67.07;96131.22;1780518;80;21110;-69
2022/05/07 06:27:54;;;;;;;11.95;8.15;;;;;;;15.07;64.90;96126.50;1780312;80;21026;-69
2022/05/07 06:30:22;;;;;;;8.95;5.83;;;;;;;15.15;62.44;96126.28;1780405;80;21039;-69
2022/05/07 06:32:51;;;;;;;7.05;5.08;;;;;;;15.29;64.11;96131.20;1780925;80;21027;-69
2022/05/07 06:35:19;;;;;;;5.90;5.30;;;;;;;15.39;64.48;96131.34;1780545;80;21070;-69
2022/05/07 06:37:48;;;;;;;7.03;5.05;;;;;;;15.43;63.16;96132.14;1780898;80;21565;-69
2022/05/07 06:40:15;;;;;;;8.30;5.55;;;;;;;15.46;63.73;96134.70;1780313;80;21582;-69
2022/05/07 06:42:45;;;;;;;5.92;5.33;;;;;;;15.50;63.62;96129.27;1780724;80;21087;-67
2022/05/07 06:45:14;;;;;;;6.65;5.75;;;;;;;15.55;63.49;96126.47;1779739;80;21023;-69
2022/05/07 06:47:41;;;;;;;8.90;5.87;;;;;;;15.63;63.91;96130.23;1780863;80;20979;-69
2022/05/07 06:50:08;;;;;;;7.45;5.35;;;;;;;15.80;63.49;96118.66;1780786;80;21074;-69
2022/05/07 06:52:46;;;;;;;8.40;5.78;;;;;;;15.80;63.49;96118.66;1780662;80;21516;-69
2022/05/07 06:55:16;;;;;;;8.00;6.30;;;;;;;16.00;63.54;96128.66;1781001;80;21494;-67
2022/05/07 06:57:44;;;;;;;6.80;5.42;;;;;;;16.17;63.44;96125.00;1748117;81;21059;-69
2022/05/07 07:00:13;;;;;;;8.58;7.00;;;;;;;16.31;62.89;96129.89;1780598;80;20960;-69
2022/05/07 07:02:41;;;;;;;7.78;5.95;;;;;;;16.48;63.23;96125.36;1780839;80;21003;-69
2022/05/07 07:05:10;;;;;;;6.37;5.78;;;;;;;16.65;63.05;96119.44;1780563;81;21051;-69
2022/05/07 07:07:36;;;;;;;7.85;5.97;;;;;;;16.78;61.83;96115.48;1780728;80;21034;-69
2022/05/07 07:10:04;;;;;;;8.10;6.17;;;;;;;16.93;61.12;96115.84;1780895;80;21533;-69
2022/05/07 07:12:31;;;;;;;8.05;5.65;;;;;;;17.09;60.66;96119.26;1780808;80;21545;-69
2022/05/07 07:14:57;;;;;;;6.60;5.90;;;;;;;17.30;59.03;96117.59;1780348;80;21071;-69
2022/05/07 07:17:27;;;;;;;7.53;6.03;;;;;;;17.54;59.08;96117.63;1780936;80;20974;-69
2022/05/07 07:19:53;;;;;;;10.53;6.72;;;;;;;17.74;59.21;96116.88;1780747;80;20980;-69
2022/05/07 07:22:19;;;;;;;8.68;5.92;;;;;;;17.84;57.63;96115.63;1780580;80;21070;-69
2022/05/07 07:24:46;;;;;;;7.03;5.83;;;;;;;17.90;55.60;96117.18;1780478;81;21090;-69
2022/05/07 07:27:14;;;;;;;5.40;4.90;;;;;;;17.94;55.83;96122.78;1780975;80;20976;-69
2022/05/07 07:29:44;;;;;;;5.15;4.75;;;;;;;18.10;55.74;96111.92;1780389;80;21062;-69
2022/05/07 07:32:09;;;;;;;7.22;4.62;;;;;;;18.25;52.51;96115.78;1780986;80;21007;-69
2022/05/07 07:34:35;;;;;;;5.55;4.72;;;;;;;18.30;51.63;96120.94;1780668;80;21528;-69
2022/05/07 07:37:03;;;;;;;6.58;4.45;;;;;;;18.28;51.44;96114.31;1780919;80;21049;-69
2022/05/07 07:39:32;;;;;;;5.80;4.40;;;;;;;18.28;50.89;96114.78;1780752;80;21457;-68
2022/05/07 07:41:59;;;;;;;5.58;4.90;;;;;;;18.27;49.44;96117.92;1780618;80;21051;-69
2022/05/07 07:44:29;;;;;;;5.30;4.80;;;;;;;18.36;48.83;96122.88;1780657;80;21509;-69
2022/05/07 07:49:40;;;;;;;4.83;4.35;;;;;;;18.41;50.35;96121.35;1780739;80;20968;-69
2022/05/07 07:52:07;;;;;;;7.08;4.60;;;;;;;18.41;49.18;96121.35;1780976;80;21035;-69
2022/05/07 07:54:35;;;;;;;8.05;4.78;;;;;;;18.42;48.99;96124.45;1781110;80;21011;-68
2022/05/07 07:57:02;;;;;;;6.92;5.08;;;;;;;18.42;49.57;96128.45;1780851;80;21012;-69
2022/05/07 07:59:30;;;;;;;5.85;5.20;;;;;;;18.40;48.38;96128.12;1780619;80;21010;-68
2022/05/07 08:01:57;;;;;;;11.75;5.58;;;;;;;18.57;49.96;96125.59;1780841;80;21477;-69
2022/05/07 08:04:25;;;;;;;8.28;5.37;;;;;;;18.74;48.71;96121.74;1780396;80;21026;-69
2022/05/07 08:12:25;;;;;;;7.28;5.42;;;;;;;19.02;46.60;96122.83;1781068;80;21043;-67
2022/05/07 08:14:52;;;;;;;7.45;4.97;;;;;;;19.03;46.03;96121.02;1780715;80;21492;-67
2022/05/07 08:17:18;;;;;;;7.70;5.42;;;;;;;19.01;46.63;96121.06;1780765;80;21482;-67
2022/05/07 08:19:45;;;;;;;10.25;5.28;;;;;;;18.98;45.66;96118.53;1780476;81;21540;-67
2022/05/07 08:22:12;;;;;;;4.78;4.30;;;;;;;18.95;46.05;96115.10;1780891;80;21019;-67
2022/05/07 08:24:39;;;;;;;7.10;4.50;;;;;;;18.94;46.50;96113.37;1780648;80;21020;-67
2022/05/07 08:27:06;;;;;;;5.67;4.65;;;;;;;18.94;46.60;96116.05;1780757;80;20995;-67
2022/05/07 08:29:33;;;;;;;6.62;5.50;;;;;;;18.97;45.72;96114.09;1780554;80;20980;-67
2022/05/07 08:32:00;;;;;;;6.70;4.87;;;;;;;19.09;44.55;96119.87;1780750;80;21513;-67
2022/05/07 08:34:26;;;;;;;5.17;4.67;;;;;;;19.28;43.55;96113.22;1780849;80;21434;-67
2022/05/07 08:36:53;;;;;;;4.28;3.87;;;;;;;19.42;42.72;96106.31;1780846;80;21051;-66
2022/05/07 08:39:20;;;;;;;6.15;4.65;;;;;;;19.71;43.83;96109.52;1780497;80;21099;-67
2022/05/07 08:41:48;;;;;;;7.62;4.62;;;;;;;19.91;42.32;96112.59;1780838;80;21000;-67
2022/05/07 08:44:15;;;;;;;6.90;4.75;;;;;;;19.88;40.32;96118.08;1780649;80;21074;-66
2022/05/07 08:46:42;;;;;;;10.40;7.67;;;;;;;19.94;41.86;96109.77;1780316;81;21596;-67
2022/05/07 08:49:12;;;;;;;10.50;9.23;;;;;;;19.98;41.97;96116.73;1780791;80;20983;-67
2022/05/07 08:51:41;;;;;;;7.75;5.53;;;;;;;20.01;41.32;96114.37;1780417;81;21028;-67
2022/05/07 08:54:10;;;;;;;9.00;5.67;;;;;;;19.92;41.03;96118.34;1788700;80;21006;-67
2022/05/07 08:56:36;;;;;;;9.10;5.30;;;;;;;19.91;41.38;96117.95;1789945;80;21007;-67
2022/05/07 08:59:03;;;;;;;6.08;4.37;;;;;;;19.99;41.12;96119.80;1789680;80;20987;-67
2022/05/07 09:01:30;;;;;;;6.15;4.25;;;;;;;19.98;41.31;96123.88;1789584;80;21054;-67
2022/05/07 09:04:00;;;;;;;5.65;4.53;;;;;;;20.13;42.54;96116.92;1789751;80;20983;-67
2022/05/07 09:06:27;;;;;;;5.55;4.42;;;;;;;20.35;42.33;96117.62;1786318;80;21003;-67
2022/05/07 09:08:57;;;;;;;6.20;4.30;;;;;;;20.56;41.80;96115.71;1790009;80;20967;-67
2022/05/07 09:11:24;;;;;;;5.95;4.25;;;;;;;20.77;40.99;96118.30;1790020;80;21003;-67
2022/05/07 09:14:06;;;;;;;5.55;4.35;;;;;;;20.98;42.72;96109.61;1789654;80;20991;-66
2022/05/07 09:16:39;;;;;;;6.03;4.58;;;;;;;21.12;41.45;96105.75;1789991;80;21066;-67
2022/05/07 09:19:06;;;;;;;;;;;;;;;21.12;39.93;96099.05;1792659;80;20990;-67
2022/05/07 09:21:34;;;;;;;8.08;6.15;;;;;;;21.04;39.86;96100.78;1786990;79;20100;-67
2022/05/07 09:24:06;;;;;;;4.80;4.30;;;;;;;21.09;41.29;96096.49;1789811;80;21007;-67
2022/05/07 09:26:43;;;;;;;7.20;4.78;;;;;;;21.22;40.00;96097.61;1789795;80;21045;-67
2022/05/07 09:29:12;;;;;;;6.37;4.35;;;;;;;21.21;40.74;96094.99;1789910;80;21110;-67
2022/05/07 09:31:41;;;;;;;4.72;4.33;;;;;;;21.21;39.53;96093.17;1789849;80;21018;-68
2022/05/07 09:37:20;;;;;;;7.47;4.80;;;;;;;21.49;40.85;96092.59;1789909;80;21521;-68
2022/05/07 09:39:50;;;;;;;6.05;4.62;;;;;;;21.60;40.11;96086.67;1789837;80;21082;-67
2022/05/07 09:42:24;;;;;;;6.33;4.33;;;;;;;21.67;40.16;96085.39;1789716;80;21043;-67
2022/05/07 09:44:50;;;;;;;6.15;4.05;;;;;;;21.81;39.72;96079.24;1789659;80;21042;-67
2022/05/07 09:47:18;;;;;;;7.00;4.22;;;;;;;21.92;40.33;96076.81;1789779;80;21058;-67
2022/05/07 09:52:33;;;;;;;5.10;4.10;;;;;;;21.86;37.42;96080.33;1789586;80;21138;-67
2022/05/07 09:57:44;;;;;;;5.08;4.50;;;;;;;21.94;37.61;96074.05;1790116;80;21034;-67
2022/05/07 10:00:15;;;;;;;5.85;3.85;;;;;;;22.01;39.12;96068.73;1789549;80;21021;-67
2022/05/07 10:03:13;;;;;;;4.45;3.98;;;;;;;22.17;40.99;96071.41;1789769;80;21081;-67
2022/05/07 10:06:04;;;;;;;4.83;3.92;;;;;;;22.20;39.76;96074.84;1788947;80;21107;-70
2022/05/07 10:09:01;;;;;;;5.20;4.20;;;;;;;22.35;40.29;96074.44;1789257;80;21031;-70
2022/05/07 10:11:28;;;;;;;4.53;4.00;;;;;;;22.31;37.84;96071.52;1789911;80;21007;-70
2022/05/07 10:13:58;;;;;;;4.95;3.98;;;;;;;22.20;39.27;96064.08;1789823;80;20987;-70
2022/05/07 10:16:30;;;;;;;6.95;4.12;;;;;;;21.98;39.46;96060.36;1789698;80;21480;-70
2022/05/07 10:19:10;;;;;;;4.62;4.22;;;;;;;21.94;40.08;96064.16;1790113;80;20987;-70
2022/05/07 10:21:37;;;;;;;4.85;4.22;;;;;;;22.12;42.84;96062.73;1789888;80;21066;-67
2022/05/07 10:24:05;;;;;;;4.25;3.87;;;;;;;22.40;41.75;96059.36;1789915;80;21058;-67
2022/05/07 10:26:47;;;;;;;5.05;4.05;;;;;;;22.62;41.66;96050.91;1789816;80;21030;-67
2022/05/07 10:29:27;;;;;;;8.95;4.08;;;;;;;22.55;39.43;96043.66;1789821;80;21003;-65
2022/05/07 10:32:07;;;;;;;5.60;4.80;;;;;;;22.82;40.07;96049.73;1789401;80;21138;-67
2022/05/07 10:34:33;;;;;;;6.05;5.12;;;;;;;23.23;41.03;96048.57;1789902;80;20975;-67
2022/05/07 10:37:04;;;;;;;8.55;4.90;;;;;;;23.57;40.78;96045.63;1789707;80;21469;-67
2022/05/07 10:39:31;;;;;;;5.17;4.67;;;;;;;23.75;39.89;96049.88;1789960;80;20951;-68
2022/05/07 10:42:03;;;;;;;4.92;4.05;;;;;;;23.83;40.07;96038.61;1789498;80;21099;-68
2022/05/07 10:44:33;;;;;;;5.08;4.55;;;;;;;23.89;39.68;96039.09;1788448;80;21002;-68
2022/05/07 10:47:19;;;;;;;5.03;4.40;;;;;;;23.98;39.57;96034.92;1761327;80;21049;-68
2022/05/07 10:50:11;;;;;;;5.53;4.70;;;;;;;23.98;37.91;96031.73;1789842;80;21497;-68
2022/05/07 10:52:39;;;;;;;7.33;5.35;;;;;;;24.19;39.43;96037.58;1789446;80;21595;-66
2022/05/07 10:55:10;;;;;;;7.60;4.62;;;;;;;24.32;38.85;96032.73;1789919;80;20979;-67
2022/05/07 10:57:43;;;;;;;5.22;4.20;;;;;;;24.39;37.85;96036.27;1789909;80;20975;-67
2022/05/07 11:00:16;;;;;;;6.85;4.15;;;;;;;24.31;37.21;96042.63;1789254;80;21541;-67
2022/05/07 11:02:45;;;;;;;9.18;4.33;;;;;;;24.16;38.16;96041.80;1790106;80;21110;-67
2022/05/07 11:05:12;;;;;;;5.87;4.70;;;;;;;24.14;38.35;96044.22;1789646;80;21034;-67
2022/05/07 11:07:40;;;;;;;9.33;5.60;;;;;;;24.23;38.26;96042.27;1789882;80;21034;-67
2022/05/07 11:10:09;;;;;;;4.42;3.92;;;;;;;24.33;38.13;96033.95;1789840;80;21465;-67
2022/05/07 11:12:35;;;;;;;6.05;5.05;;;;;;;24.10;38.19;96042.22;1789750;80;21539;-68
2022/05/07 11:15:07;;;;;;;6.45;5.12;;;;;;;23.69;39.46;96035.43;1790048;80;21030;-68
2022/05/07 11:17:41;;;;;;;6.40;5.07;;;;;;;23.51;39.68;96027.55;1790371;80;21042;-68
2022/05/07 11:20:09;;;;;;;6.03;5.40;;;;;;;23.11;39.94;96027.82;1789805;80;21011;-68
2022/05/07 11:22:39;;;;;;;7.00;5.10;;;;;;;23.15;40.75;96023.10;1789962;80;21468;-68
2022/05/07 11:25:06;;;;;;;5.80;5.22;;;;;;;23.23;38.38;96020.80;1789957;80;20991;-67
2022/05/07 11:27:33;;;;;;;5.45;4.95;;;;;;;23.07;40.41;96017.70;1789867;80;20987;-67
2022/05/07 11:30:04;;;;;;;6.30;4.37;;;;;;;22.90;41.59;96029.45;1776785;80;21026;-67
2022/05/07 11:32:39;;;;;;;6.45;4.60;;;;;;;22.69;41.95;96026.73;1790047;80;21492;-68
2022/05/07 11:35:08;;;;;;;6.97;4.85;;;;;;;22.46;41.34;96020.03;1789912;80;20967;-68
2022/05/07 11:37:43;;;;;;;7.55;4.70;;;;;;;22.29;42.51;96031.76;1789919;80;21041;-68
2022/05/07 11:40:13;;;;;;;5.92;4.70;;;;;;;22.13;42.82;96027.72;1789866;80;20979;-68
2022/05/07 11:42:45;;;;;;;6.97;5.28;;;;;;;21.92;41.55;96023.08;1789948;80;21548;-67
2022/05/07 11:45:29;;;;;;;6.15;4.83;;;;;;;21.76;43.29;96035.17;1790517;80;20998;-67
2022/05/07 11:48:09;;;;;;;8.58;4.87;;;;;;;21.51;42.18;96030.29;1789974;80;21517;-67
2022/05/07 11:50:41;;;;;;;6.37;5.62;;;;;;;21.29;42.49;96026.56;1790057;80;21473;-67
2022/05/07 11:53:16;;;;;;;11.60;6.10;;;;;;;21.02;42.58;96036.95;1787644;80;21031;-67
2022/05/07 11:55:46;;;;;;;5.72;4.37;;;;;;;20.52;40.51;96060.50;1789805;80;21053;-67
2022/05/07 11:58:24;;;;;;;9.33;5.62;;;;;;;20.13;40.82;96062.00;1789913;80;20983;-67
2022/05/07 12:00:51;;;;;;;7.10;5.20;;;;;;;19.64;42.33;96067.87;1789252;80;21070;-67
2022/05/07 12:03:22;;;;;;;5.10;3.45;;;;;;;19.38;42.88;96069.09;1789739;80;21002;-67
2022/05/07 12:05:52;;;;;;;11.88;5.70;;;;;;;19.11;43.37;96077.41;1789256;80;21481;-67
2022/05/07 12:08:22;;;;;;;8.05;5.58;;;;;;;18.74;44.64;96084.80;1789864;80;21034;-67